Time;durP1;ratioP1;P1;durP2;ratioP2;P2;SDS_P1;SDS_P2;PMS_P1;PMS_P2;Temp;Humidity;BMP_temperature;BMP_pressure;BME280_temperature;BME280_humidity;BME280_pressure;Samples;Min_cycle;Max_cycle;Signal;HPM_P1;HPM_P2
2022/12/05 00:00:49;;;;;;;11.55;6.57;;;;;;;-10.53;66.59;102379.97;5036175;28;20052;-76
2022/12/05 00:03:13;;;;;;;14.68;6.18;;;;;;;-10.42;66.62;102366.00;5035774;28;20132;-73
2022/12/05 00:05:41;;;;;;;20.33;7.75;;;;;;;-10.74;66.83;102379.66;5034151;28;20131;-71
2022/12/05 00:08:06;;;;;;;15.85;7.55;;;;;;;-10.78;67.21;102373.41;5032427;28;20498;-73
2022/12/05 00:10:30;;;;;;;15.15;6.28;;;;;;;-10.69;66.55;102385.94;5054288;28;20062;-73
2022/12/05 00:12:55;;;;;;;12.05;6.20;;;;;;;-10.56;66.80;102382.38;5032669;28;20040;-72
2022/12/05 00:15:20;;;;;;;5.43;3.55;;;;;;;-10.46;66.88;102384.69;5039736;28;20056;-69
2022/12/05 00:17:44;;;;;;;17.40;8.88;;;;;;;-10.62;66.63;102392.34;5050184;28;20031;-70
2022/12/05 00:20:09;;;;;;;10.95;6.05;;;;;;;-10.72;66.91;102376.34;5045994;28;20426;-69
2022/12/05 00:22:36;;;;;;;6.65;3.00;;;;;;;-10.65;67.12;102393.94;5036469;28;20058;-68
2022/12/05 00:25:00;;;;;;;10.43;4.32;;;;;;;-10.50;67.11;102377.59;5059453;28;20043;-74
2022/12/05 00:27:25;;;;;;;6.40;3.33;;;;;;;-10.53;67.44;102380.88;5055518;28;20046;-75
2022/12/05 00:29:50;;;;;;;13.98;7.30;;;;;;;-10.55;66.21;102368.69;5048566;28;20036;-75
2022/12/05 00:32:14;;;;;;;5.47;4.20;;;;;;;-10.54;66.17;102370.47;5028940;28;20410;-72
2022/12/05 00:34:39;;;;;;;5.03;3.30;;;;;;;-10.52;65.98;102374.03;5029712;28;20040;-73
2022/12/05 00:37:03;;;;;;;6.95;4.45;;;;;;;-10.63;66.45;102375.09;5058718;28;20122;-74
2022/12/05 00:39:28;;;;;;;12.30;6.25;;;;;;;-10.72;66.33;102371.19;5037502;28;20482;-73
2022/12/05 00:41:52;;;;;;;10.23;6.20;;;;;;;-10.37;65.56;102359.41;5056401;28;20112;-70
2022/12/05 00:44:17;;;;;;;15.70;6.97;;;;;;;-10.45;66.15;102371.88;5052688;28;20033;-73
2022/12/05 00:46:42;;;;;;;11.25;4.57;;;;;;;-10.49;65.54;102366.44;5058276;28;20142;-74
2022/12/05 00:49:07;;;;;;;7.22;4.15;;;;;;;-10.46;65.92;102359.78;5041153;28;20463;-74
2022/12/05 00:51:35;;;;;;;7.00;4.85;;;;;;;-10.53;65.88;102355.09;4998226;28;20127;-72
2022/12/05 00:54:02;;;;;;;4.10;2.85;;;;;;;-10.53;65.87;102352.53;5056839;28;20166;-74
2022/12/05 00:56:28;;;;;;;2.33;1.63;;;;;;;-10.83;65.94;102367.09;5049633;28;20050;-73
2022/12/05 00:58:55;;;;;;;16.55;6.47;;;;;;;-10.78;66.12;102381.16;5054907;28;20048;-74
2022/12/05 01:01:25;;;;;;;7.07;4.50;;;;;;;-10.52;66.43;102348.25;5040796;28;20394;-71
2022/12/05 01:03:52;;;;;;;10.30;4.95;;;;;;;-10.70;66.21;102367.00;5040227;28;20055;-72
2022/12/05 01:06:17;;;;;;;5.10;3.83;;;;;;;-10.63;66.29;102357.06;5023347;28;20039;-71
2022/12/05 01:08:42;;;;;;;12.98;6.55;;;;;;;-10.93;66.22;102357.06;5053369;28;20039;-71
2022/12/05 01:11:08;;;;;;;4.97;2.88;;;;;;;-10.82;67.07;102348.25;5057006;28;20071;-72
2022/12/05 01:13:34;;;;;;;8.95;5.13;;;;;;;-10.91;67.00;102352.00;5056449;28;20053;-71
2022/12/05 01:15:59;;;;;;;15.30;7.30;;;;;;;-10.85;67.39;102348.13;5046580;28;20053;-72
2022/12/05 01:18:25;;;;;;;11.88;3.80;;;;;;;-10.94;66.76;102347.56;5056295;28;20048;-72
2022/12/05 01:20:50;;;;;;;9.60;6.25;;;;;;;-11.06;67.43;102329.69;5018984;28;20042;-75
2022/12/05 01:23:15;;;;;;;4.25;2.42;;;;;;;-10.96;67.94;102332.84;5048329;28;20043;-75
2022/12/05 01:25:46;;;;;;;13.07;5.60;;;;;;;-11.05;67.55;102330.59;5040940;28;20074;-75
2022/12/05 01:28:11;;;;;;;3.78;2.63;;;;;;;-10.88;67.64;102340.19;5047527;28;20044;-73
2022/12/05 01:30:40;;;;;;;16.30;8.38;;;;;;;-11.06;67.85;102326.25;5046295;28;20414;-71
2022/12/05 01:33:05;;;;;;;12.63;6.18;;;;;;;-10.96;67.43;102317.38;5046358;28;20092;-72
2022/12/05 01:35:34;;;;;;;9.65;4.07;;;;;;;-10.94;66.46;102311.47;5046509;28;20044;-73
2022/12/05 01:37:59;;;;;;;6.38;3.65;;;;;;;-10.70;66.64;102304.28;4986127;28;20438;-73
2022/12/05 01:40:24;;;;;;;8.20;3.92;;;;;;;-10.79;66.91;102307.22;5055242;28;20118;-72
2022/12/05 01:42:48;;;;;;;10.07;4.50;;;;;;;-10.91;66.54;102303.94;5048013;28;20094;-72
2022/12/05 01:45:15;;;;;;;12.80;6.40;;;;;;;-11.07;66.44;102311.59;5049930;28;20044;-71
2022/12/05 01:47:41;;;;;;;16.33;7.28;;;;;;;-11.06;67.22;102310.81;5025504;28;20032;-72
2022/12/05 01:50:07;;;;;;;10.65;6.15;;;;;;;-11.06;67.00;102297.94;5056895;28;20051;-71
2022/12/05 01:52:33;;;;;;;23.92;7.22;;;;;;;-11.35;67.34;102303.06;5051570;28;20044;-72
2022/12/05 01:55:03;;;;;;;10.98;6.60;;;;;;;-11.19;67.93;102310.91;5044997;28;20139;-74
2022/12/05 01:57:28;;;;;;;10.25;5.68;;;;;;;-11.20;67.57;102301.38;4989888;28;20055;-72
2022/12/05 01:59:57;;;;;;;5.28;3.78;;;;;;;-11.04;67.75;102299.78;5039540;28;20032;-75
2022/12/05 02:02:22;;;;;;;13.43;7.43;;;;;;;-11.13;67.60;102296.66;5036481;28;20051;-71
2022/12/05 02:05:00;;;;;;;12.32;7.05;;;;;;;-11.15;67.23;102310.25;5036279;28;19920;-70
2022/12/05 02:07:26;;;;;;;18.05;7.03;;;;;;;-11.32;67.83;102300.66;5036988;28;20048;-72
2022/12/05 02:09:50;;;;;;;18.58;9.60;;;;;;;-11.39;68.08;102307.13;5036906;28;20101;-70
2022/12/05 02:12:19;;;;;;;12.10;6.90;;;;;;;-11.24;68.22;102299.41;5035720;28;20129;-69
2022/12/05 02:15:31;;;;;;;12.15;6.20;;;;;;;-11.02;67.84;102293.03;5034783;28;20048;-70
2022/12/05 02:18:23;;;;;;;6.38;2.25;;;;;;;-10.80;67.36;102294.25;4974036;28;20057;-68
2022/12/05 02:20:58;;;;;;;10.27;4.20;;;;;;;-11.11;67.54;102297.66;4974139;28;20057;-71
2022/12/05 02:23:47;;;;;;;9.32;5.03;;;;;;;-11.05;66.88;102286.81;4974142;28;20050;-71
2022/12/05 02:26:39;;;;;;;11.75;4.88;;;;;;;-11.07;66.63;102280.69;4971027;28;20140;-70
2022/12/05 02:29:10;;;;;;;14.10;7.13;;;;;;;-11.20;67.52;102286.81;4972263;28;20077;-72
2022/12/05 02:31:49;;;;;;;8.65;4.40;;;;;;;-11.11;67.66;102286.47;4950358;28;20045;-72
2022/12/05 02:34:23;;;;;;;7.90;3.92;;;;;;;-10.98;67.68;102283.78;4973588;28;20046;-72
2022/12/05 02:37:08;;;;;;;13.52;6.65;;;;;;;-11.10;67.03;102288.25;4944425;28;20103;-72
2022/12/05 02:40:28;;;;;;;17.85;9.65;;;;;;;-11.38;67.28;102281.47;4974171;28;20137;-71
2022/12/05 02:43:09;;;;;;;20.75;8.25;;;;;;;-11.38;68.09;102273.75;4878185;29;20052;-70
2022/12/05 02:45:37;;;;;;;10.15;5.47;;;;;;;-11.16;67.24;102275.00;4878126;29;20534;-71
2022/12/05 02:48:03;;;;;;;9.60;4.57;;;;;;;-11.07;67.34;102267.81;4877113;29;20160;-71
2022/12/05 02:50:32;;;;;;;16.45;9.02;;;;;;;-11.22;67.02;102272.09;4878020;29;20047;-70
2022/12/05 02:53:02;;;;;;;17.55;8.30;;;;;;;-11.25;67.79;102269.31;4879405;29;20553;-65
2022/12/05 02:55:29;;;;;;;13.48;7.10;;;;;;;-11.22;67.20;102282.38;4921379;28;20470;-65
2022/12/05 02:57:57;;;;;;;8.30;3.72;;;;;;;-11.07;67.24;102262.66;4918362;28;20059;-66
2022/12/05 03:00:22;;;;;;;11.10;5.25;;;;;;;-11.09;66.99;102259.13;4918539;28;20045;-66
2022/12/05 03:02:49;;;;;;;7.63;3.78;;;;;;;-11.01;66.85;102258.75;4934466;28;20050;-65
2022/12/05 03:05:18;;;;;;;11.35;5.68;;;;;;;-11.02;66.74;102248.34;4918374;28;20484;-65
2022/12/05 03:07:46;;;;;;;7.63;4.13;;;;;;;-11.07;66.52;102249.78;4934663;28;20085;-66
2022/12/05 03:10:13;;;;;;;12.02;5.72;;;;;;;-11.08;66.72;102248.91;4918189;28;20129;-65
2022/12/05 03:12:46;;;;;;;4.68;2.63;;;;;;;-11.02;66.28;102250.94;4934685;28;20102;-64
2022/12/05 03:15:24;;;;;;;9.30;5.50;;;;;;;-11.18;66.83;102248.28;4934361;28;20137;-66
2022/12/05 03:17:56;;;;;;;11.13;5.90;;;;;;;-11.08;66.58;102259.22;4973870;28;20542;-65
2022/12/05 03:20:20;;;;;;;7.70;3.92;;;;;;;-11.22;65.91;102246.34;5034278;28;20125;-66
2022/12/05 03:22:52;;;;;;;12.98;6.13;;;;;;;-10.93;65.58;102248.88;5034517;28;20098;-65
2022/12/05 03:25:19;;;;;;;13.15;5.65;;;;;;;-11.17;65.43;102239.78;5034663;28;20068;-64
2022/12/05 03:28:04;;;;;;;13.02;6.85;;;;;;;-11.41;66.86;102255.56;5032818;28;20040;-65
2022/12/05 03:30:31;;;;;;;4.18;2.72;;;;;;;-11.15;66.41;102253.59;5034520;28;20091;-66
2022/12/05 03:33:02;;;;;;;12.50;5.28;;;;;;;-11.21;65.52;102240.38;5031810;28;20070;-66
2022/12/05 03:35:33;;;;;;;11.10;5.80;;;;;;;-11.22;66.28;102247.22;5024067;28;20165;-65
2022/12/05 03:38:15;;;;;;;2.17;1.85;;;;;;;-11.35;66.45;102233.53;5034520;28;20055;-66
2022/12/05 03:41:00;;;;;;;18.30;7.18;;;;;;;-11.55;67.14;102238.44;5036394;28;20413;-70
2022/12/05 03:43:33;;;;;;;13.80;6.22;;;;;;;-11.44;67.41;102236.47;5035436;28;20048;-71
2022/12/05 03:46:12;;;;;;;9.02;5.30;;;;;;;-11.41;67.28;102235.00;5016756;28;20044;-71
2022/12/05 03:49:01;;;;;;;5.45;3.03;;;;;;;-11.41;67.37;102228.94;5013392;28;20041;-72
2022/12/05 03:51:33;;;;;;;11.40;4.10;;;;;;;-11.43;67.29;102227.97;5029661;28;20051;-70
2022/12/05 03:54:04;;;;;;;7.43;5.10;;;;;;;-11.41;66.70;102222.13;5034620;28;20131;-71
2022/12/05 03:56:46;;;;;;;13.27;6.93;;;;;;;-11.67;67.11;102223.94;5034656;28;20123;-71
2022/12/05 03:59:30;;;;;;;12.02;4.00;;;;;;;-11.66;67.95;102224.06;5036655;28;20056;-73
2022/12/05 04:02:00;;;;;;;9.18;5.40;;;;;;;-11.56;67.43;102218.63;5037148;28;20068;-69
2022/12/05 04:04:33;;;;;;;11.77;5.70;;;;;;;-11.52;66.80;102218.03;5038044;28;20056;-70
2022/12/05 04:07:02;;;;;;;7.72;3.22;;;;;;;-11.41;66.99;102219.53;5038186;28;20040;-70
2022/12/05 04:09:39;;;;;;;12.13;6.22;;;;;;;-11.49;67.03;102210.47;5037928;28;20048;-69
2022/12/05 04:12:09;;;;;;;6.00;5.00;;;;;;;-11.40;67.54;102212.72;5037982;28;20036;-64
2022/12/05 04:14:39;;;;;;;8.95;5.20;;;;;;;-11.57;66.85;102222.00;5037839;28;20040;-66
2022/12/05 04:17:10;;;;;;;8.07;5.47;;;;;;;-11.65;67.22;102220.69;5036540;28;20057;-69
2022/12/05 04:22:36;;;;;;;11.30;6.05;;;;;;;-11.53;66.44;102216.25;5019535;28;20414;-70
2022/12/05 04:28:06;;;;;;;12.25;6.13;;;;;;;-11.81;67.88;102202.59;5023831;28;20131;-70
2022/12/05 04:30:58;;;;;;;16.90;8.82;;;;;;;-11.85;67.57;102187.78;5037460;28;20032;-70
2022/12/05 04:33:25;;;;;;;17.08;6.97;;;;;;;-11.85;67.52;102188.66;5021196;28;20491;-71
2022/12/05 04:36:18;;;;;;;15.20;4.40;;;;;;;-11.80;68.40;102186.34;5020125;28;20044;-71
2022/12/05 04:38:47;;;;;;;12.93;5.22;;;;;;;-11.78;67.70;102190.81;5043883;28;20086;-68
2022/12/05 04:41:19;;;;;;;10.27;5.13;;;;;;;-11.54;68.00;102195.56;5025177;28;20060;-71
2022/12/05 04:43:46;;;;;;;9.50;4.30;;;;;;;-11.51;67.01;102188.91;5017398;28;20048;-70
2022/12/05 04:46:13;;;;;;;12.93;5.57;;;;;;;-11.70;67.06;102188.63;5030896;28;20068;-70
2022/12/05 04:48:41;;;;;;;4.70;3.35;;;;;;;-11.70;67.79;102193.78;5038176;28;20044;-70
2022/12/05 04:51:08;;;;;;;8.63;3.95;;;;;;;-11.63;67.50;102198.50;5037156;28;20115;-69
2022/12/05 04:53:34;;;;;;;9.15;5.07;;;;;;;-11.76;67.87;102193.47;5037915;28;20474;-71
2022/12/05 04:56:01;;;;;;;11.55;5.28;;;;;;;-11.73;67.28;102179.03;5036405;28;20075;-70
2022/12/05 04:58:27;;;;;;;10.60;5.03;;;;;;;-11.52;66.93;102176.84;5037229;28;20052;-71
2022/12/05 05:00:58;;;;;;;9.55;5.30;;;;;;;-11.49;67.21;102169.28;5037163;28;20043;-70
2022/12/05 05:03:28;;;;;;;13.20;6.45;;;;;;;-11.77;67.38;102166.84;5036908;28;20680;-70
2022/12/05 05:05:55;;;;;;;4.78;3.47;;;;;;;-11.74;67.10;102166.13;5037644;28;20054;-70
2022/12/05 05:08:26;;;;;;;6.75;3.80;;;;;;;-11.78;67.80;102159.03;5016218;28;20176;-69
2022/12/05 05:11:00;;;;;;;16.13;5.50;;;;;;;-11.93;67.75;102174.47;5023662;28;20475;-71
2022/12/05 05:13:24;;;;;;;;;;;;;;;-11.80;68.32;102165.78;5036168;28;20060;-69
2022/12/05 05:15:49;;;;;;;10.45;6.13;;;;;;;-11.87;67.96;102163.66;5019158;28;19916;-70
2022/12/05 05:18:13;;;;;;;9.68;3.95;;;;;;;-11.68;67.89;102165.56;5037384;28;20383;-70
2022/12/05 05:20:38;;;;;;;12.88;5.18;;;;;;;-11.71;67.18;102178.25;5019741;28;20044;-70
2022/12/05 05:23:03;;;;;;;8.45;4.93;;;;;;;-11.85;67.37;102180.06;5037280;28;20036;-69
2022/12/05 05:25:27;;;;;;;3.17;1.85;;;;;;;-11.61;67.17;102178.88;5018878;28;20048;-70
2022/12/05 05:27:54;;;;;;;9.82;5.47;;;;;;;-11.57;66.63;102185.09;5035416;28;20048;-70
2022/12/05 05:30:21;;;;;;;6.53;3.63;;;;;;;-11.78;67.51;102180.50;5002386;28;20055;-70
2022/12/05 05:32:45;;;;;;;15.20;6.90;;;;;;;-11.61;66.44;102186.59;5036484;28;20036;-68
2022/12/05 05:35:12;;;;;;;11.30;5.53;;;;;;;-11.65;66.77;102171.78;5036852;28;20105;-65
2022/12/05 05:37:37;;;;;;;13.48;6.63;;;;;;;-11.74;66.87;102176.41;5035175;28;20044;-66
2022/12/05 05:40:02;;;;;;;8.70;4.47;;;;;;;-11.67;67.37;102170.81;5018604;28;20055;-67
2022/12/05 05:42:27;;;;;;;13.32;7.63;;;;;;;-11.75;66.70;102165.22;5036093;28;20041;-66
2022/12/05 05:44:52;;;;;;;11.45;6.32;;;;;;;-11.77;67.00;102172.00;4989319;28;20101;-66
2022/12/05 05:47:17;;;;;;;9.77;5.47;;;;;;;-11.71;67.29;102160.25;5020916;28;20152;-66
2022/12/05 05:49:41;;;;;;;10.07;5.68;;;;;;;-11.65;66.54;102151.22;5038511;28;20040;-67
2022/12/05 05:52:06;;;;;;;12.77;4.70;;;;;;;-11.49;66.99;102142.66;5020521;28;20044;-66
2022/12/05 05:54:31;;;;;;;13.10;7.13;;;;;;;-11.88;66.58;102157.63;5038568;28;20032;-67
2022/12/05 05:56:55;;;;;;;11.25;5.47;;;;;;;-11.70;66.69;102156.88;5036966;28;20040;-67
2022/12/05 05:59:20;;;;;;;14.82;6.00;;;;;;;-11.63;66.67;102149.63;5036848;28;20426;-67
2022/12/05 06:01:45;;;;;;;6.30;3.35;;;;;;;-11.53;67.33;102164.78;5019020;28;20071;-66
2022/12/05 06:04:10;;;;;;;6.15;3.03;;;;;;;-11.38;66.51;102159.59;5019437;28;20071;-66
2022/12/05 06:06:35;;;;;;;8.00;3.40;;;;;;;-11.17;66.13;102157.38;5036194;28;20028;-66
2022/12/05 06:08:59;;;;;;;15.88;6.93;;;;;;;-11.33;66.10;102149.56;5037519;28;20097;-67
2022/12/05 06:11:26;;;;;;;8.38;4.93;;;;;;;-11.28;66.18;102169.63;5036870;28;20089;-66
2022/12/05 06:13:51;;;;;;;11.93;5.18;;;;;;;-11.01;65.31;102159.97;5037891;28;20040;-66
2022/12/05 06:16:18;;;;;;;14.32;6.88;;;;;;;-11.22;65.51;102149.38;5037642;28;20040;-65
2022/12/05 06:18:42;;;;;;;11.75;5.78;;;;;;;-11.16;64.90;102156.53;5039223;28;20044;-65
2022/12/05 06:21:08;;;;;;;6.28;2.63;;;;;;;-11.13;65.16;102164.44;5002214;28;20044;-68
2022/12/05 06:23:35;;;;;;;11.77;6.70;;;;;;;-11.19;64.86;102151.25;5032972;28;20049;-67
2022/12/05 06:26:00;;;;;;;13.05;6.57;;;;;;;-11.20;65.29;102142.63;5038568;28;20049;-64
2022/12/05 06:28:25;;;;;;;16.38;5.97;;;;;;;-11.19;65.60;102143.53;5036183;28;20044;-66
2022/12/05 06:30:50;;;;;;;12.57;5.65;;;;;;;-11.10;65.21;102142.34;5037563;28;20069;-66
2022/12/05 06:33:15;;;;;;;9.82;3.38;;;;;;;-10.98;65.05;102143.81;5037179;28;20090;-65
2022/12/05 06:35:40;;;;;;;11.07;3.47;;;;;;;-10.92;65.16;102147.59;5035183;28;20127;-66
2022/12/05 06:38:06;;;;;;;10.10;5.35;;;;;;;-10.93;64.65;102148.41;5035870;28;20063;-66
2022/12/05 06:40:30;;;;;;;12.98;6.18;;;;;;;-11.27;64.76;102155.06;5034954;28;20036;-65
2022/12/05 06:42:55;;;;;;;14.38;7.60;;;;;;;-11.08;64.55;102145.00;5036463;28;20045;-66
2022/12/05 06:45:20;;;;;;;9.07;5.18;;;;;;;-11.03;64.94;102152.16;5035066;28;20069;-65
2022/12/05 06:47:44;;;;;;;9.07;4.40;;;;;;;-10.77;64.40;102145.88;5034690;28;20108;-67
2022/12/05 06:50:09;;;;;;;7.55;4.22;;;;;;;-10.77;65.05;102145.88;5035760;28;20101;-64
2022/12/05 06:52:34;;;;;;;12.63;6.70;;;;;;;-10.92;63.97;102133.84;5034518;28;20044;-65
2022/12/05 06:54:58;;;;;;;8.25;6.00;;;;;;;-10.91;64.95;102133.03;5035948;28;20135;-66
2022/12/05 06:57:23;;;;;;;12.75;6.45;;;;;;;-10.84;64.42;102132.59;5035594;28;20538;-66
2022/12/05 06:59:48;;;;;;;13.75;8.00;;;;;;;-10.81;63.76;102133.63;5036582;28;20550;-66
2022/12/05 07:02:12;;;;;;;12.98;6.90;;;;;;;-10.82;63.51;102136.09;5037125;28;20537;-70
2022/12/05 07:04:37;;;;;;;13.20;5.97;;;;;;;-10.74;63.51;102137.44;5041419;28;20551;-71
2022/12/05 07:07:02;;;;;;;12.70;5.93;;;;;;;-10.51;64.13;102146.38;5005998;28;20458;-69
2022/12/05 07:12:24;;;;;;;8.05;4.15;;;;;;;-10.38;63.38;102135.94;4973537;28;20140;-66
2022/12/05 07:14:49;;;;;;;14.82;7.43;;;;;;;-10.77;62.25;102139.81;4975107;28;20125;-66
2022/12/05 07:17:14;;;;;;;5.97;4.10;;;;;;;-10.38;63.80;102146.25;4959501;28;20038;-69
2022/12/05 07:19:38;;;;;;;3.72;2.95;;;;;;;-10.12;62.20;102132.94;4977329;28;20064;-65
2022/12/05 07:22:03;;;;;;;9.27;4.82;;;;;;;-10.24;61.82;102147.81;4974833;28;20563;-67
2022/12/05 07:24:28;;;;;;;15.20;6.88;;;;;;;-10.44;61.91;102136.47;4958663;28;20370;-65
2022/12/05 07:26:53;;;;;;;12.50;6.55;;;;;;;-10.44;62.92;102135.59;4958608;28;20054;-65
2022/12/05 07:29:18;;;;;;;15.23;7.20;;;;;;;-10.40;62.08;102132.38;4973573;28;20049;-66
2022/12/05 07:31:42;;;;;;;14.60;7.00;;;;;;;-10.27;61.33;102120.16;4957318;28;20048;-67
2022/12/05 07:34:07;;;;;;;9.98;4.93;;;;;;;-10.06;62.35;102119.50;4975943;28;20038;-66
2022/12/05 07:36:32;;;;;;;10.98;5.80;;;;;;;-10.10;60.38;102117.56;4977973;28;20049;-66
2022/12/05 07:38:57;;;;;;;12.23;6.53;;;;;;;-10.12;61.18;102114.91;4961589;28;20042;-65
2022/12/05 07:41:25;;;;;;;11.85;7.03;;;;;;;-10.30;60.69;102114.00;4978217;28;20057;-66
2022/12/05 07:43:51;;;;;;;13.75;7.05;;;;;;;-10.20;61.41;102126.56;4977484;28;20034;-64
2022/12/05 07:46:16;;;;;;;12.05;5.35;;;;;;;-9.95;61.21;102114.06;4962415;28;20392;-65
2022/12/05 07:48:41;;;;;;;8.07;4.90;;;;;;;-9.73;61.39;102109.97;5029022;28;20089;-67
2022/12/05 07:51:07;;;;;;;12.40;5.20;;;;;;;-9.51;61.27;102109.34;5020934;28;20045;-66
2022/12/05 07:53:32;;;;;;;11.75;6.32;;;;;;;-9.48;59.38;102112.97;5018850;28;20487;-66
2022/12/05 07:56:01;;;;;;;11.30;5.85;;;;;;;-9.02;59.63;102104.78;5030028;28;20040;-73
2022/12/05 07:58:30;;;;;;;10.95;6.43;;;;;;;-8.15;58.14;102100.13;5041041;28;20084;-70
2022/12/05 08:00:56;;;;;;;10.10;6.03;;;;;;;-7.00;56.47;102088.41;5040360;28;20060;-73
2022/12/05 08:03:20;;;;;;;9.93;5.55;;;;;;;-6.33;53.01;102083.16;5023763;28;20072;-73
2022/12/05 08:05:45;;;;;;;6.97;3.30;;;;;;;-6.13;52.96;102086.47;5042423;28;20040;-73
2022/12/05 08:08:10;;;;;;;4.32;2.95;;;;;;;-6.14;52.77;102081.22;5044690;28;20044;-74
2022/12/05 08:10:34;;;;;;;11.43;5.70;;;;;;;-6.45;53.68;102074.94;5022688;28;20415;-72
2022/12/05 08:12:59;;;;;;;4.07;2.78;;;;;;;-6.85;54.28;102075.16;5040663;28;20402;-72
2022/12/05 08:15:24;;;;;;;12.18;6.45;;;;;;;-7.27;53.55;102073.53;5040774;28;20186;-74
2022/12/05 08:17:48;;;;;;;11.05;6.20;;;;;;;-7.17;53.93;102066.16;5040954;28;20044;-71
2022/12/05 08:20:13;;;;;;;20.20;6.80;;;;;;;-6.77;53.62;102073.72;5040173;28;20419;-71
2022/12/05 08:22:38;;;;;;;12.57;6.43;;;;;;;-6.10;52.87;102064.94;5040150;28;20041;-71
2022/12/05 08:25:03;;;;;;;16.25;6.22;;;;;;;-5.28;50.99;102060.69;5038096;28;20735;-71
2022/12/05 08:27:27;;;;;;;16.10;8.70;;;;;;;-4.39;45.80;102054.66;5038217;28;20059;-73
2022/12/05 08:29:53;;;;;;;8.82;5.55;;;;;;;-3.11;46.21;102043.97;5017345;28;20553;-75
2022/12/05 08:32:18;;;;;;;9.10;4.45;;;;;;;-2.64;44.65;102045.88;5026093;28;20423;-72
2022/12/05 08:34:42;;;;;;;13.80;7.53;;;;;;;-3.14;42.02;102046.50;5029998;28;20434;-73
2022/12/05 08:37:07;;;;;;;10.45;6.15;;;;;;;-2.99;43.40;102049.44;5043029;28;20040;-73
2022/12/05 08:39:32;;;;;;;13.75;7.05;;;;;;;-2.83;43.04;102045.47;5022425;28;20050;-71
2022/12/05 08:41:56;;;;;;;10.70;4.72;;;;;;;-2.76;43.14;102037.78;5017816;28;20044;-67
2022/12/05 08:44:22;;;;;;;13.93;6.55;;;;;;;-2.68;41.82;102025.75;5029423;28;20047;-66
2022/12/05 08:46:48;;;;;;;9.35;6.10;;;;;;;-2.37;41.19;102024.63;5041803;28;20467;-66
2022/12/05 08:49:14;;;;;;;8.25;4.75;;;;;;;-2.26;42.99;102022.25;5043694;28;20520;-67
2022/12/05 08:51:39;;;;;;;12.88;6.95;;;;;;;-2.49;40.49;102029.63;5040111;28;20521;-67
2022/12/05 08:54:04;;;;;;;15.95;6.57;;;;;;;-2.04;41.73;102027.00;5038061;28;20047;-68
2022/12/05 08:56:31;;;;;;;9.93;5.43;;;;;;;-1.96;41.28;102012.31;5040015;28;20048;-67
2022/12/05 08:58:56;;;;;;;6.68;4.43;;;;;;;-2.00;42.27;102017.47;5036020;28;20056;-66
2022/12/05 09:01:21;;;;;;;11.27;7.18;;;;;;;-3.07;41.30;102009.28;5019563;28;20043;-67
2022/12/05 09:03:46;;;;;;;11.85;6.25;;;;;;;-3.60;42.23;102015.84;5032164;28;20072;-66
2022/12/05 09:06:14;;;;;;;12.02;6.60;;;;;;;-3.61;43.15;102009.75;5010884;28;20078;-67
2022/12/05 09:08:39;;;;;;;9.07;5.55;;;;;;;-3.00;44.09;102009.44;5038981;28;20135;-67
2022/12/05 09:11:13;;;;;;;9.38;3.72;;;;;;;-2.72;43.62;102013.50;5037169;28;20052;-66
2022/12/05 09:13:38;;;;;;;15.82;7.68;;;;;;;-3.57;42.72;102006.38;5036853;28;20388;-66
2022/12/05 09:16:12;;;;;;;14.63;7.40;;;;;;;-3.62;43.24;102001.94;5036874;28;20044;-68
2022/12/05 09:18:37;;;;;;;9.67;5.07;;;;;;;-3.68;43.49;101998.31;5037891;28;20506;-67
2022/12/05 09:21:22;;;;;;;11.27;5.97;;;;;;;-3.52;45.30;101998.69;5020436;28;20182;-67
2022/12/05 09:23:49;;;;;;;15.07;5.93;;;;;;;-4.19;44.74;101987.50;5036395;28;20495;-67
2022/12/05 09:26:16;;;;;;;11.05;5.57;;;;;;;-4.48;45.81;101991.03;5037154;28;20048;-65
2022/12/05 09:28:42;;;;;;;8.55;4.78;;;;;;;-4.74;45.96;101990.34;5036565;28;20494;-67
2022/12/05 09:31:10;;;;;;;11.00;6.18;;;;;;;-5.09;46.59;101985.84;5020945;28;20048;-67
2022/12/05 09:33:36;;;;;;;8.52;5.30;;;;;;;-4.95;46.96;101985.38;5007092;28;20036;-66
2022/12/05 09:36:11;;;;;;;8.88;5.35;;;;;;;-5.05;46.16;101980.75;5018703;28;20044;-73
2022/12/05 09:38:36;;;;;;;14.45;6.85;;;;;;;-4.82;46.17;101982.31;5019394;28;20028;-74
2022/12/05 09:44:40;;;;;;;10.55;5.28;;;;;;;-4.58;46.88;101970.81;5006628;28;20045;-75
2022/12/05 09:47:16;;;;;;;12.90;7.40;;;;;;;-5.25;46.51;101955.91;5010879;28;20598;-73
2022/12/05 09:49:50;;;;;;;9.30;5.65;;;;;;;-5.23;47.50;101969.84;5022513;28;20069;-73
2022/12/05 09:52:50;;;;;;;10.03;5.07;;;;;;;-5.14;47.98;101959.69;5001865;28;20044;-74
2022/12/05 09:55:17;;;;;;;12.98;5.97;;;;;;;-5.13;47.41;101954.53;4994671;28;20045;-75
2022/12/05 09:57:49;;;;;;;17.15;7.20;;;;;;;-5.27;47.63;101955.84;4977773;28;20139;-74
2022/12/05 10:00:15;;;;;;;6.78;3.80;;;;;;;-5.07;47.07;101953.81;4995083;28;20037;-74
2022/12/05 10:03:01;;;;;;;17.05;7.55;;;;;;;-5.43;47.19;101955.38;4994370;28;20140;-72
2022/12/05 10:05:41;;;;;;;14.57;7.05;;;;;;;-5.52;47.23;101941.25;4994187;28;20102;-73
2022/12/05 10:08:49;;;;;;;7.07;4.20;;;;;;;-5.22;47.88;101948.19;4977978;28;20049;-71
2022/12/05 10:11:56;;;;;;;5.20;2.85;;;;;;;-5.52;48.42;101948.16;4982731;28;20041;-72
2022/12/05 10:14:45;;;;;;;4.97;3.30;;;;;;;-5.91;48.22;101946.13;4994364;28;20045;-73
2022/12/05 10:17:22;;;;;;;19.23;8.45;;;;;;;-6.34;49.53;101935.19;4994588;28;20160;-73
2022/12/05 10:19:50;;;;;;;8.70;5.43;;;;;;;-6.21;49.71;101952.06;4966083;28;20041;-74
2022/12/05 10:22:21;;;;;;;12.30;6.07;;;;;;;-6.23;49.14;101939.00;4994948;28;20037;-72
2022/12/05 10:24:52;;;;;;;14.45;6.68;;;;;;;-6.53;50.06;101940.56;4994971;28;20401;-73
2022/12/05 10:27:29;;;;;;;15.95;6.88;;;;;;;-6.78;50.49;101931.06;4994120;28;20049;-69
2022/12/05 10:30:03;;;;;;;14.07;6.68;;;;;;;-6.87;51.03;101926.41;4996296;28;20476;-67
2022/12/05 10:32:38;;;;;;;14.73;7.43;;;;;;;-7.17;51.50;101935.69;5024138;28;20041;-67
2022/12/05 10:35:13;;;;;;;8.10;4.53;;;;;;;-7.13;52.31;101938.47;5020321;28;20414;-67
2022/12/05 10:37:39;;;;;;;12.23;7.00;;;;;;;-7.26;52.19;101931.06;5004057;28;20037;-66
2022/12/05 10:40:04;;;;;;;7.63;4.57;;;;;;;-6.97;51.82;101938.19;5034983;28;20036;-67
2022/12/05 10:42:33;;;;;;;5.63;3.47;;;;;;;-6.86;51.43;101925.59;5035254;28;20514;-68
2022/12/05 10:45:02;;;;;;;6.40;3.70;;;;;;;-6.96;51.24;101926.97;5035152;28;20037;-67
2022/12/05 10:47:31;;;;;;;14.23;6.38;;;;;;;-7.34;52.54;101920.44;5018606;28;20549;-67
2022/12/05 10:50:02;;;;;;;12.93;5.72;;;;;;;-7.18;52.16;101931.34;5017267;28;20601;-67
2022/12/05 10:52:29;;;;;;;11.65;6.25;;;;;;;-7.47;52.41;101935.44;5034474;28;20044;-69
2022/12/05 10:54:59;;;;;;;10.38;5.57;;;;;;;-7.51;52.86;101936.13;5015752;28;20051;-69
2022/12/05 10:57:26;;;;;;;5.82;4.07;;;;;;;-7.38;52.75;101934.09;5018399;28;20048;-69
2022/12/05 10:59:51;;;;;;;10.27;4.15;;;;;;;-7.39;52.85;101929.72;5036459;28;20048;-69
2022/12/05 11:02:28;;;;;;;7.63;4.32;;;;;;;-7.33;52.70;101923.88;5039007;28;20040;-69
2022/12/05 11:04:54;;;;;;;10.20;4.97;;;;;;;-7.50;52.94;101924.97;5007934;28;20060;-67
2022/12/05 11:07:29;;;;;;;7.85;4.65;;;;;;;-7.48;52.88;101926.78;5021781;28;20048;-68
2022/12/05 11:09:54;;;;;;;9.40;4.95;;;;;;;-7.62;53.77;101924.50;5017712;28;20897;-68
2022/12/05 11:12:32;;;;;;;9.32;5.55;;;;;;;-7.53;53.46;101911.88;5017306;28;20491;-67
2022/12/05 11:14:59;;;;;;;11.57;6.57;;;;;;;-7.51;53.13;101925.78;5034497;28;20453;-68
2022/12/05 11:17:33;;;;;;;12.57;6.53;;;;;;;-7.81;54.28;101922.91;5034251;28;20052;-69
2022/12/05 11:19:57;;;;;;;11.52;5.03;;;;;;;-7.65;53.80;101920.06;5016460;28;20067;-69
2022/12/05 11:22:34;;;;;;;10.73;5.32;;;;;;;-7.75;54.24;101917.97;5016386;28;20147;-67
2022/12/05 11:24:59;;;;;;;12.57;6.03;;;;;;;-7.79;54.07;101913.50;5034988;28;20047;-67
2022/12/05 11:27:30;;;;;;;13.75;6.50;;;;;;;-7.80;54.73;101910.03;5036667;28;20041;-67
2022/12/05 11:29:58;;;;;;;10.30;5.50;;;;;;;-7.86;54.57;101914.06;5035050;28;20162;-67
2022/12/05 11:32:25;;;;;;;9.50;4.65;;;;;;;-7.78;54.44;101918.72;5038148;28;20040;-68
2022/12/05 11:35:00;;;;;;;17.40;5.05;;;;;;;-7.71;54.42;101902.59;5038382;28;20037;-68